Time;durP1;ratioP1;P1;durP2;ratioP2;P2;SDS_P1;SDS_P2;PMS_P1;PMS_P2;Temp;Humidity;BMP_temperature;BMP_pressure;BME280_temperature;BME280_humidity;BME280_pressure;Samples;Min_cycle;Max_cycle;Signal;HPM_P1;HPM_P2
2023/10/26 00:00:43;;;;;;;61.55;29.13;;;;;;;;;;5041819;28;20425;-61
2023/10/26 00:03:10;;;;;;;55.45;28.58;;;;;;;;;;5039505;28;20414;-59
2023/10/26 00:05:37;;;;;;;59.63;28.80;;;;;;;;;;5046472;28;20417;-57
2023/10/26 00:08:04;;;;;;;56.40;27.85;;;;;;;;;;5045334;28;20827;-59
2023/10/26 00:10:31;;;;;;;55.67;27.10;;;;;;;;;;5042414;28;20409;-61
2023/10/26 00:12:58;;;;;;;56.72;28.33;;;;;;;;;;5039456;28;20410;-59
2023/10/26 00:15:26;;;;;;;52.77;28.00;;;;;;;;;;5041048;28;20502;-58
2023/10/26 00:17:53;;;;;;;54.05;28.50;;;;;;;;;;5042000;28;20413;-61
2023/10/26 00:20:21;;;;;;;59.45;29.58;;;;;;;;;;5030708;28;20411;-58
2023/10/26 00:22:47;;;;;;;61.37;29.83;;;;;;;;;;5030995;28;20782;-61
2023/10/26 00:25:15;;;;;;;62.33;31.17;;;;;;;;;;5030932;28;20461;-61
2023/10/26 00:27:41;;;;;;;64.53;32.93;;;;;;;;;;5039140;28;20477;-60
2023/10/26 00:30:10;;;;;;;62.55;32.10;;;;;;;;;;5040876;28;20405;-58
2023/10/26 00:32:39;;;;;;;57.42;30.50;;;;;;;;;;5041680;28;20409;-60
2023/10/26 00:35:06;;;;;;;57.33;30.20;;;;;;;;;;5035976;28;20409;-60
2023/10/26 00:37:33;;;;;;;52.47;29.20;;;;;;;;;;5046836;28;20413;-59
2023/10/26 00:40:01;;;;;;;52.90;28.20;;;;;;;;;;5039460;28;20461;-57
2023/10/26 00:42:28;;;;;;;48.10;27.83;;;;;;;;;;5039382;28;20414;-58
2023/10/26 00:44:56;;;;;;;49.90;26.42;;;;;;;;;;5040677;28;20410;-59
2023/10/26 00:47:24;;;;;;;48.60;26.67;;;;;;;;;;5040591;28;20490;-60
2023/10/26 00:49:53;;;;;;;42.95;25.75;;;;;;;;;;5039406;28;20493;-56
2023/10/26 00:52:20;;;;;;;45.58;26.00;;;;;;;;;;5040472;28;20409;-59
2023/10/26 00:54:47;;;;;;;43.50;25.35;;;;;;;;;;5042606;28;20412;-59
2023/10/26 00:57:16;;;;;;;44.30;26.17;;;;;;;;;;5039412;28;20411;-59
2023/10/26 00:59:45;;;;;;;44.47;25.20;;;;;;;;;;5039866;28;20437;-58
2023/10/26 01:02:13;;;;;;;42.95;26.33;;;;;;;;;;5041478;28;20913;-56
2023/10/26 01:04:40;;;;;;;42.30;25.75;;;;;;;;;;5040669;28;21086;-56
2023/10/26 01:07:09;;;;;;;40.05;25.33;;;;;;;;;;5044092;28;20477;-55
2023/10/26 01:09:36;;;;;;;40.85;24.83;;;;;;;;;;5041918;28;20409;-57
2023/10/26 01:12:03;;;;;;;42.67;26.73;;;;;;;;;;5039523;28;20411;-62
2023/10/26 01:14:30;;;;;;;46.92;27.67;;;;;;;;;;5039524;28;20414;-59
2023/10/26 01:16:57;;;;;;;44.33;28.20;;;;;;;;;;5041935;28;20532;-59
2023/10/26 01:19:37;;;;;;;50.40;29.50;;;;;;;;;;5039486;28;20901;-53
2023/10/26 01:22:05;;;;;;;49.58;29.05;;;;;;;;;;5038803;28;20881;-57
2023/10/26 01:24:33;;;;;;;50.40;29.35;;;;;;;;;;5040247;28;20524;-58
2023/10/26 01:26:59;;;;;;;50.53;29.30;;;;;;;;;;5041102;28;20842;-58
2023/10/26 01:29:26;;;;;;;39.42;23.88;;;;;;;;;;5038773;28;20423;-57
2023/10/26 01:31:53;;;;;;;38.78;24.35;;;;;;;;;;5040194;28;20417;-58
2023/10/26 01:34:20;;;;;;;39.78;24.55;;;;;;;;;;5041052;28;20421;-57
2023/10/26 01:36:48;;;;;;;37.08;22.88;;;;;;;;;;5044887;28;20409;-59
2023/10/26 01:39:16;;;;;;;38.38;23.42;;;;;;;;;;5040235;28;20443;-59
2023/10/26 01:41:44;;;;;;;36.88;21.58;;;;;;;;;;5038905;28;20450;-56
2023/10/26 01:44:11;;;;;;;33.70;20.70;;;;;;;;;;5041650;28;20492;-54
2023/10/26 01:46:38;;;;;;;35.65;20.85;;;;;;;;;;5039421;28;20909;-54
2023/10/26 01:49:05;;;;;;;33.95;21.08;;;;;;;;;;5039025;28;20469;-58
2023/10/26 01:51:32;;;;;;;31.20;20.25;;;;;;;;;;5041172;28;20459;-59
2023/10/26 01:53:59;;;;;;;27.73;18.33;;;;;;;;;;5039397;28;20423;-60
2023/10/26 01:56:28;;;;;;;28.90;18.98;;;;;;;;;;5039400;28;20407;-57
2023/10/26 01:58:55;;;;;;;28.50;18.65;;;;;;;;;;5044374;28;20409;-57
2023/10/26 02:01:22;;;;;;;31.20;19.67;;;;;;;;;;5043065;28;20461;-59
2023/10/26 02:03:49;;;;;;;35.67;21.77;;;;;;;;;;5042607;28;20897;-57
2023/10/26 02:06:16;;;;;;;36.72;21.38;;;;;;;;;;5047616;28;20422;-60
2023/10/26 02:08:43;;;;;;;36.80;23.05;;;;;;;;;;5044012;28;20407;-58
2023/10/26 02:11:10;;;;;;;40.63;24.05;;;;;;;;;;5043905;28;20451;-61
2023/10/26 02:13:40;;;;;;;43.17;24.90;;;;;;;;;;5042053;28;20450;-58
2023/10/26 02:16:07;;;;;;;43.80;25.33;;;;;;;;;;5044062;28;20413;-55
2023/10/26 02:18:34;;;;;;;42.30;25.02;;;;;;;;;;5043798;28;20483;-61
2023/10/26 02:21:01;;;;;;;39.50;23.77;;;;;;;;;;5038950;28;20423;-61
2023/10/26 02:23:29;;;;;;;38.72;24.23;;;;;;;;;;5048666;28;20413;-58
2023/10/26 02:25:56;;;;;;;42.28;26.63;;;;;;;;;;5046187;28;20449;-54
2023/10/26 02:28:23;;;;;;;42.80;26.27;;;;;;;;;;5041519;28;20481;-56
2023/10/26 02:30:52;;;;;;;46.47;27.50;;;;;;;;;;5046300;28;20420;-58
2023/10/26 02:33:19;;;;;;;43.22;26.60;;;;;;;;;;5047392;28;20443;-53
2023/10/26 02:35:46;;;;;;;44.22;26.67;;;;;;;;;;5045402;28;20504;-60
2023/10/26 02:38:13;;;;;;;41.90;26.27;;;;;;;;;;5045647;28;20467;-54
2023/10/26 02:40:40;;;;;;;41.67;26.67;;;;;;;;;;5042061;28;20415;-51
2023/10/26 02:43:07;;;;;;;44.83;28.50;;;;;;;;;;5044579;28;20413;-60
2023/10/26 02:45:34;;;;;;;49.10;28.40;;;;;;;;;;5041783;28;20805;-59
2023/10/26 02:48:03;;;;;;;45.60;27.50;;;;;;;;;;5046307;28;20488;-58
2023/10/26 02:50:30;;;;;;;40.77;27.47;;;;;;;;;;5044435;28;20513;-59
2023/10/26 02:52:58;;;;;;;47.80;28.85;;;;;;;;;;5041135;28;20407;-58
2023/10/26 02:55:25;;;;;;;51.55;29.77;;;;;;;;;;5041930;28;20867;-58
2023/10/26 02:57:52;;;;;;;44.33;28.42;;;;;;;;;;5043950;28;20436;-60
2023/10/26 03:00:19;;;;;;;46.97;28.65;;;;;;;;;;5041569;28;20419;-60
2023/10/26 03:02:47;;;;;;;47.63;29.10;;;;;;;;;;5041651;28;20425;-60
2023/10/26 03:05:15;;;;;;;48.22;29.60;;;;;;;;;;5044635;28;20440;-58
2023/10/26 03:07:42;;;;;;;48.13;28.20;;;;;;;;;;5038906;28;20427;-58
2023/10/26 03:10:09;;;;;;;47.17;28.63;;;;;;;;;;5038584;28;20832;-60
2023/10/26 03:12:36;;;;;;;47.88;28.70;;;;;;;;;;5036769;28;20421;-60
2023/10/26 03:15:04;;;;;;;45.25;28.25;;;;;;;;;;5046512;28;20413;-58
2023/10/26 03:17:30;;;;;;;43.20;28.38;;;;;;;;;;5035419;28;20432;-58
2023/10/26 03:19:57;;;;;;;42.17;28.20;;;;;;;;;;5038870;28;20901;-57
2023/10/26 03:22:26;;;;;;;42.30;28.05;;;;;;;;;;5036863;28;20410;-58
2023/10/26 03:24:53;;;;;;;41.55;27.65;;;;;;;;;;5036105;28;20413;-58
2023/10/26 03:27:20;;;;;;;45.08;28.25;;;;;;;;;;5038112;28;20477;-60
2023/10/26 03:29:47;;;;;;;44.80;28.60;;;;;;;;;;5033047;28;20816;-57
2023/10/26 03:32:14;;;;;;;43.33;28.05;;;;;;;;;;5039278;28;20418;-58
2023/10/26 03:34:41;;;;;;;40.13;26.85;;;;;;;;;;5038370;28;20409;-58
2023/10/26 03:37:08;;;;;;;40.58;25.92;;;;;;;;;;5043275;28;20405;-60
2023/10/26 03:39:37;;;;;;;42.20;26.67;;;;;;;;;;5044336;28;20927;-59
2023/10/26 03:42:04;;;;;;;40.83;26.20;;;;;;;;;;5040416;28;20438;-60
2023/10/26 03:44:31;;;;;;;43.05;27.30;;;;;;;;;;5040186;28;20411;-57
2023/10/26 03:46:58;;;;;;;42.03;27.45;;;;;;;;;;5041394;28;20483;-59
2023/10/26 03:49:25;;;;;;;38.20;25.57;;;;;;;;;;5042568;28;20802;-55
2023/10/26 03:51:52;;;;;;;39.53;25.33;;;;;;;;;;5031464;28;20893;-59
2023/10/26 03:54:19;;;;;;;39.97;25.67;;;;;;;;;;5031549;28;20411;-58
2023/10/26 03:56:47;;;;;;;40.42;26.77;;;;;;;;;;5031430;28;20410;-60
2023/10/26 03:59:14;;;;;;;40.65;26.10;;;;;;;;;;5043392;28;20397;-57
2023/10/26 04:01:41;;;;;;;40.50;26.15;;;;;;;;;;5041740;28;20411;-60
2023/10/26 04:04:09;;;;;;;40.00;25.00;;;;;;;;;;5040509;28;20411;-60
2023/10/26 04:06:36;;;;;;;39.63;26.42;;;;;;;;;;5049926;28;20418;-60
2023/10/26 04:09:04;;;;;;;33.78;22.85;;;;;;;;;;5043948;28;20810;-58
2023/10/26 04:11:30;;;;;;;36.47;24.83;;;;;;;;;;5042020;28;20412;-59
2023/10/26 04:13:59;;;;;;;39.42;24.73;;;;;;;;;;5040043;28;20422;-59
2023/10/26 04:16:26;;;;;;;37.33;23.73;;;;;;;;;;5041415;28;20413;-61
2023/10/26 04:18:53;;;;;;;36.30;23.85;;;;;;;;;;5041785;28;20807;-61
2023/10/26 04:21:20;;;;;;;39.53;25.85;;;;;;;;;;5039192;28;20473;-61
2023/10/26 04:23:47;;;;;;;38.00;24.90;;;;;;;;;;5041266;28;20955;-59
2023/10/26 04:26:14;;;;;;;37.08;24.45;;;;;;;;;;5041663;28;20405;-57
2023/10/26 04:28:41;;;;;;;36.80;24.08;;;;;;;;;;5039361;28;20435;-59
2023/10/26 04:31:10;;;;;;;35.53;24.70;;;;;;;;;;5041394;28;20409;-62
2023/10/26 04:33:36;;;;;;;38.85;25.63;;;;;;;;;;5041397;28;20471;-59
2023/10/26 04:36:06;;;;;;;42.42;27.02;;;;;;;;;;5045464;28;20409;-59
2023/10/26 04:38:34;;;;;;;39.53;26.85;;;;;;;;;;5044251;28;20411;-61
2023/10/26 04:41:01;;;;;;;38.90;25.98;;;;;;;;;;5040638;28;20418;-60
2023/10/26 04:43:28;;;;;;;40.03;26.92;;;;;;;;;;5042734;28;20447;-57
2023/10/26 04:45:55;;;;;;;40.55;26.05;;;;;;;;;;5042587;28;20415;-61
2023/10/26 04:48:23;;;;;;;40.13;25.83;;;;;;;;;;5039899;28;20431;-58
2023/10/26 04:50:50;;;;;;;40.45;25.58;;;;;;;;;;5041992;28;20409;-58
2023/10/26 04:53:17;;;;;;;41.15;27.23;;;;;;;;;;5039465;28;20415;-58
2023/10/26 04:55:44;;;;;;;43.75;27.00;;;;;;;;;;5039777;28;20415;-59
2023/10/26 04:58:11;;;;;;;40.93;27.00;;;;;;;;;;5041813;28;20459;-60
2023/10/26 05:00:39;;;;;;;40.78;28.17;;;;;;;;;;5039771;28;20430;-58
2023/10/26 05:03:06;;;;;;;43.40;27.73;;;;;;;;;;5039645;28;20777;-61
2023/10/26 05:05:34;;;;;;;42.72;25.85;;;;;;;;;;5044639;28;21086;-61
2023/10/26 05:08:03;;;;;;;45.08;27.60;;;;;;;;;;5044096;28;20429;-59
2023/10/26 05:10:30;;;;;;;46.45;27.80;;;;;;;;;;5041292;28;20421;-60
2023/10/26 05:12:57;;;;;;;44.13;28.90;;;;;;;;;;5038736;28;20414;-58
2023/10/26 05:15:24;;;;;;;44.60;27.13;;;;;;;;;;5040662;28;20945;-58
2023/10/26 05:17:51;;;;;;;45.58;28.73;;;;;;;;;;5040833;28;20409;-57
2023/10/26 05:20:18;;;;;;;46.83;28.42;;;;;;;;;;5038608;28;20465;-58
2023/10/26 05:22:46;;;;;;;46.05;28.88;;;;;;;;;;5040992;28;20455;-57
2023/10/26 05:25:13;;;;;;;50.33;28.75;;;;;;;;;;5040905;28;20446;-62
2023/10/26 05:27:40;;;;;;;43.65;27.42;;;;;;;;;;5038686;28;20423;-58
2023/10/26 05:30:08;;;;;;;39.35;26.08;;;;;;;;;;5040640;28;20840;-61
2023/10/26 05:32:35;;;;;;;42.30;26.30;;;;;;;;;;5041542;28;20413;-56
2023/10/26 05:35:02;;;;;;;47.47;27.85;;;;;;;;;;5047425;28;20439;-59
2023/10/26 05:37:29;;;;;;;43.70;27.58;;;;;;;;;;5050837;28;20405;-51
2023/10/26 05:39:56;;;;;;;51.08;30.77;;;;;;;;;;5046452;28;20929;-55
2023/10/26 05:42:23;;;;;;;51.17;31.48;;;;;;;;;;5043988;28;20426;-54
2023/10/26 05:44:50;;;;;;;53.13;30.60;;;;;;;;;;5045560;28;20476;-54
2023/10/26 05:47:17;;;;;;;54.20;31.98;;;;;;;;;;5043199;28;20468;-57
2023/10/26 05:49:44;;;;;;;55.03;31.93;;;;;;;;;;5043502;28;20882;-54
2023/10/26 05:52:11;;;;;;;52.38;31.33;;;;;;;;;;5040715;28;20413;-51
2023/10/26 05:54:38;;;;;;;53.47;32.90;;;;;;;;;;5045292;28;20417;-54
2023/10/26 05:57:07;;;;;;;55.35;33.78;;;;;;;;;;5047312;28;21260;-55
2023/10/26 05:59:34;;;;;;;59.85;35.60;;;;;;;;;;5048793;28;20411;-58
2023/10/26 06:02:01;;;;;;;58.50;35.50;;;;;;;;;;5047651;28;20822;-61
2023/10/26 06:04:28;;;;;;;57.47;35.42;;;;;;;;;;5044786;28;20476;-61
2023/10/26 06:06:55;;;;;;;63.42;37.30;;;;;;;;;;5049167;28;20470;-61
2023/10/26 06:09:22;;;;;;;62.28;36.30;;;;;;;;;;5043420;28;20442;-59
2023/10/26 06:11:49;;;;;;;64.43;37.25;;;;;;;;;;5042009;28;20419;-60
2023/10/26 06:14:18;;;;;;;65.10;37.90;;;;;;;;;;5044505;28;20413;-60
2023/10/26 06:16:45;;;;;;;65.28;36.42;;;;;;;;;;5042640;28;20934;-60
2023/10/26 06:19:12;;;;;;;69.15;37.72;;;;;;;;;;5042336;28;20453;-58
2023/10/26 06:21:39;;;;;;;67.88;36.75;;;;;;;;;;5044593;28;20409;-58
2023/10/26 06:24:06;;;;;;;63.20;37.67;;;;;;;;;;5042728;28;20414;-59
2023/10/26 06:26:34;;;;;;;60.80;36.30;;;;;;;;;;5042054;28;20422;-59
2023/10/26 06:29:01;;;;;;;60.78;35.58;;;;;;;;;;5044066;28;20421;-60
2023/10/26 06:31:29;;;;;;;61.40;36.25;;;;;;;;;;5042391;28;20412;-60
2023/10/26 06:33:56;;;;;;;60.67;35.80;;;;;;;;;;5041655;28;20415;-61
2023/10/26 06:36:23;;;;;;;61.83;37.05;;;;;;;;;;5046504;28;20877;-59
2023/10/26 06:38:50;;;;;;;65.40;36.50;;;;;;;;;;5045835;28;20463;-59
2023/10/26 06:41:17;;;;;;;62.95;36.30;;;;;;;;;;5047194;28;20407;-61
2023/10/26 06:43:44;;;;;;;67.85;37.00;;;;;;;;;;5046848;28;20906;-59
2023/10/26 06:46:12;;;;;;;59.83;36.45;;;;;;;;;;5048067;28;20413;-61
2023/10/26 06:48:40;;;;;;;62.55;37.10;;;;;;;;;;5042502;28;20451;-58
2023/10/26 06:51:07;;;;;;;59.58;34.35;;;;;;;;;;5040764;28;20415;-61
2023/10/26 06:53:34;;;;;;;62.05;36.33;;;;;;;;;;5044071;28;20467;-63
2023/10/26 06:56:01;;;;;;;62.17;37.47;;;;;;;;;;5041325;28;20448;-62
2023/10/26 06:58:28;;;;;;;59.40;36.28;;;;;;;;;;5043126;28;21022;-58
2023/10/26 07:00:55;;;;;;;62.20;37.17;;;;;;;;;;5040445;28;20410;-59
2023/10/26 07:03:22;;;;;;;58.80;34.67;;;;;;;;;;5048840;28;20415;-57
2023/10/26 07:05:51;;;;;;;64.80;36.20;;;;;;;;;;5045533;28;20420;-61
2023/10/26 07:08:19;;;;;;;65.22;36.15;;;;;;;;;;5042732;28;20516;-61
2023/10/26 07:10:46;;;;;;;64.85;36.97;;;;;;;;;;5042227;28;20503;-58
2023/10/26 07:13:13;;;;;;;62.58;36.75;;;;;;;;;;5041834;28;20481;-59
2023/10/26 07:15:40;;;;;;;62.17;35.80;;;;;;;;;;5045801;28;20444;-61
2023/10/26 07:18:07;;;;;;;63.10;36.45;;;;;;;;;;5042058;28;20417;-58
2023/10/26 07:20:34;;;;;;;60.70;35.72;;;;;;;;;;5043671;28;20413;-62
2023/10/26 07:23:03;;;;;;;62.40;35.00;;;;;;;;;;5043413;28;20448;-61
2023/10/26 07:25:30;;;;;;;62.60;36.97;;;;;;;;;;5046072;28;20418;-61
2023/10/26 07:27:58;;;;;;;64.22;36.22;;;;;;;;;;5043079;28;20417;-61
2023/10/26 07:30:24;;;;;;;62.45;35.08;;;;;;;;;;5041741;28;20418;-56
2023/10/26 07:32:52;;;;;;;62.05;35.67;;;;;;;;;;5040873;28;20419;-58
2023/10/26 07:35:20;;;;;;;63.17;35.10;;;;;;;;;;5043097;28;20423;-60
2023/10/26 07:37:47;;;;;;;63.93;35.50;;;;;;;;;;5045997;28;20409;-59
2023/10/26 07:40:16;;;;;;;57.17;33.92;;;;;;;;;;5041025;28;20419;-66
2023/10/26 07:42:43;;;;;;;54.63;34.33;;;;;;;;;;5042458;28;20413;-64
2023/10/26 07:45:10;;;;;;;53.53;30.80;;;;;;;;;;5040621;28;20419;-65
2023/10/26 07:47:37;;;;;;;55.13;33.47;;;;;;;;;;5040309;28;20465;-64
2023/10/26 07:50:05;;;;;;;52.03;32.10;;;;;;;;;;5042189;28;20459;-60
2023/10/26 07:52:32;;;;;;;50.42;31.65;;;;;;;;;;5040147;28;20421;-63
2023/10/26 07:54:59;;;;;;;52.70;31.35;;;;;;;;;;5040337;28;20833;-61
2023/10/26 07:57:27;;;;;;;50.22;31.60;;;;;;;;;;5042333;28;20414;-62
2023/10/26 07:59:55;;;;;;;45.25;29.67;;;;;;;;;;5039596;28;20471;-63
2023/10/26 08:02:22;;;;;;;49.90;31.10;;;;;;;;;;5043410;28;20455;-61
2023/10/26 08:04:50;;;;;;;47.55;31.15;;;;;;;;;;5044625;28;20478;-62
2023/10/26 08:07:17;;;;;;;53.83;31.60;;;;;;;;;;5045407;28;20412;-62
2023/10/26 08:09:44;;;;;;;53.85;32.17;;;;;;;;;;5043578;28;20433;-61
2023/10/26 08:12:11;;;;;;;58.33;33.38;;;;;;;;;;5040314;28;20898;-61
2023/10/26 08:14:40;;;;;;;57.25;32.65;;;;;;;;;;5042065;28;20410;-62
2023/10/26 08:17:07;;;;;;;57.47;33.75;;;;;;;;;;5041217;28;20428;-59
2023/10/26 08:19:34;;;;;;;59.65;32.55;;;;;;;;;;5039153;28;20411;-61
2023/10/26 08:22:01;;;;;;;59.60;33.67;;;;;;;;;;5042154;28;20417;-58
2023/10/26 08:24:28;;;;;;;57.38;33.65;;;;;;;;;;5041237;28;20809;-63
2023/10/26 08:26:55;;;;;;;54.60;33.47;;;;;;;;;;5039124;28;20434;-63
2023/10/26 08:29:26;;;;;;;54.63;32.40;;;;;;;;;;5041717;28;20425;-62
2023/10/26 08:31:54;;;;;;;56.15;32.95;;;;;;;;;;5041083;28;20417;-59
2023/10/26 08:34:21;;;;;;;57.95;32.85;;;;;;;;;;5039312;28;20755;-62
2023/10/26 08:36:48;;;;;;;55.92;31.83;;;;;;;;;;5048396;28;20413;-62
2023/10/26 08:39:16;;;;;;;55.15;32.08;;;;;;;;;;5041065;28;20418;-61
2023/10/26 08:41:48;;;;;;;54.40;31.88;;;;;;;;;;5039160;28;20925;-59
2023/10/26 08:44:16;;;;;;;51.10;30.67;;;;;;;;;;5040145;28;20482;-59
2023/10/26 08:46:43;;;;;;;48.55;29.50;;;;;;;;;;5041980;28;20479;-59
2023/10/26 08:49:13;;;;;;;48.38;29.80;;;;;;;;;;5039144;28;20423;-62
2023/10/26 08:51:40;;;;;;;46.42;28.77;;;;;;;;;;5040070;28;20450;-62
2023/10/26 08:54:07;;;;;;;51.33;30.27;;;;;;;;;;5042068;28;20409;-60
2023/10/26 08:56:34;;;;;;;47.22;29.42;;;;;;;;;;5039509;28;20476;-62
2023/10/26 08:59:03;;;;;;;49.27;29.60;;;;;;;;;;5039940;28;21051;-62
2023/10/26 09:01:30;;;;;;;45.65;28.40;;;;;;;;;;5041725;28;20409;-63
2023/10/26 09:03:57;;;;;;;45.30;27.88;;;;;;;;;;5039167;28;20916;-62
2023/10/26 09:06:25;;;;;;;46.03;28.52;;;;;;;;;;5046847;28;20444;-61
2023/10/26 09:09:02;;;;;;;44.63;28.42;;;;;;;;;;5047098;28;20429;-62
2023/10/26 09:11:30;;;;;;;42.70;26.75;;;;;;;;;;5044334;28;20427;-58
2023/10/26 09:14:12;;;;;;;37.53;25.42;;;;;;;;;;5042958;28;20507;-57
2023/10/26 09:16:40;;;;;;;37.78;25.27;;;;;;;;;;5043148;28;20468;-58
2023/10/26 09:19:07;;;;;;;33.92;22.45;;;;;;;;;;5034216;28;20834;-54
2023/10/26 09:21:49;;;;;;;36.92;23.77;;;;;;;;;;5035353;28;20415;-62
2023/10/26 09:24:21;;;;;;;35.25;23.73;;;;;;;;;;5045322;28;20500;-62
2023/10/26 09:26:48;;;;;;;32.80;22.77;;;;;;;;;;5047529;28;20764;-60
2023/10/26 09:29:15;;;;;;;32.97;21.63;;;;;;;;;;5033977;28;20456;-60
2023/10/26 09:31:51;;;;;;;30.92;21.42;;;;;;;;;;5033648;28;20893;-62
2023/10/26 09:34:18;;;;;;;33.27;21.93;;;;;;;;;;5033894;28;20440;-61
2023/10/26 09:36:59;;;;;;;40.70;24.48;;;;;;;;;;5050368;28;20812;-61
2023/10/26 09:39:28;;;;;;;45.60;28.27;;;;;;;;;;5042706;28;20397;-59
2023/10/26 09:41:57;;;;;;;45.40;27.48;;;;;;;;;;5041510;28;20411;-62
2023/10/26 09:44:24;;;;;;;45.17;28.48;;;;;;;;;;5044915;28;20911;-57
2023/10/26 09:46:51;;;;;;;46.53;28.70;;;;;;;;;;5042758;28;20418;-62
2023/10/26 09:49:19;;;;;;;49.42;32.15;;;;;;;;;;5037474;28;20438;-63
2023/10/26 09:51:46;;;;;;;41.63;27.60;;;;;;;;;;5049064;28;20415;-61
2023/10/26 09:54:14;;;;;;;41.55;26.13;;;;;;;;;;5048321;28;20409;-62
2023/10/26 09:56:42;;;;;;;40.03;26.30;;;;;;;;;;5044615;28;20814;-61
2023/10/26 09:59:09;;;;;;;42.55;28.23;;;;;;;;;;5037926;28;20485;-62
2023/10/26 10:01:37;;;;;;;40.28;27.52;;;;;;;;;;5041527;28;20931;-62
2023/10/26 10:04:05;;;;;;;38.60;26.13;;;;;;;;;;5036956;28;20421;-62
2023/10/26 10:07:00;;;;;;;40.33;25.83;;;;;;;;;;5042621;28;20411;-63
2023/10/26 10:09:29;;;;;;;36.53;25.00;;;;;;;;;;5012795;28;20475;-63
2023/10/26 10:12:15;;;;;;;35.00;24.93;;;;;;;;;;5048823;28;20864;-62
2023/10/26 10:14:58;;;;;;;36.58;25.50;;;;;;;;;;5045056;28;20448;-62
2023/10/26 10:17:40;;;;;;;35.28;25.08;;;;;;;;;;5047078;28;20951;-62
2023/10/26 10:20:25;;;;;;;39.17;26.20;;;;;;;;;;5040786;28;20405;-62
2023/10/26 10:22:53;;;;;;;38.13;25.95;;;;;;;;;;5049794;28;20471;-62
2023/10/26 10:25:23;;;;;;;38.40;25.20;;;;;;;;;;5045074;28;20415;-62
2023/10/26 10:28:10;;;;;;;36.43;24.93;;;;;;;;;;5050502;28;20504;-62
2023/10/26 10:30:50;;;;;;;35.38;23.88;;;;;;;;;;5046610;28;20457;-64
2023/10/26 10:33:22;;;;;;;35.93;24.03;;;;;;;;;;5040925;28;20418;-62
2023/10/26 10:35:51;;;;;;;34.35;23.75;;;;;;;;;;5046080;28;20492;-62
2023/10/26 10:38:20;;;;;;;35.72;24.40;;;;;;;;;;5040869;28;20417;-62
2023/10/26 10:41:02;;;;;;;38.92;25.88;;;;;;;;;;5042284;28;20935;-62
2023/10/26 10:43:35;;;;;;;39.67;25.60;;;;;;;;;;5031443;28;20756;-62
2023/10/26 10:46:10;;;;;;;36.15;24.15;;;;;;;;;;5032174;28;20450;-62
2023/10/26 10:48:37;;;;;;;37.72;25.00;;;;;;;;;;5041146;28;20406;-62
2023/10/26 10:51:04;;;;;;;42.00;27.07;;;;;;;;;;5040440;28;20438;-62
2023/10/26 10:53:31;;;;;;;38.67;25.42;;;;;;;;;;5042798;28;20499;-62
2023/10/26 10:55:59;;;;;;;39.80;25.70;;;;;;;;;;5040507;28;20426;-62
2023/10/26 10:58:36;;;;;;;36.63;25.00;;;;;;;;;;5041143;28;20477;-62
2023/10/26 11:01:05;;;;;;;38.40;25.95;;;;;;;;;;5040228;28;25113;-62
2023/10/26 11:03:32;;;;;;;38.55;25.42;;;;;;;;;;5040693;28;21082;-62
2023/10/26 11:05:59;;;;;;;41.25;24.65;;;;;;;;;;5045439;28;20407;-62
2023/10/26 11:08:27;;;;;;;38.45;25.60;;;;;;;;;;5040639;28;20484;-62
2023/10/26 11:10:54;;;;;;;37.25;24.63;;;;;;;;;;5039931;28;20512;-62
2023/10/26 11:13:21;;;;;;;42.00;26.60;;;;;;;;;;5042613;28;20404;-62
2023/10/26 11:15:49;;;;;;;36.60;24.45;;;;;;;;;;5040619;28;20466;-61
2023/10/26 11:18:17;;;;;;;35.40;25.70;;;;;;;;;;5040422;28;20894;-62
2023/10/26 11:20:45;;;;;;;36.75;26.30;;;;;;;;;;5041653;28;20426;-62
2023/10/26 11:23:13;;;;;;;39.92;32.30;;;;;;;;;;5040337;28;20950;-62
2023/10/26 11:25:40;;;;;;;45.83;40.92;;;;;;;;;;5040547;28;20422;-62
2023/10/26 11:28:08;;;;;;;63.22;57.83;;;;;;;;;;5042979;28;20410;-62
2023/10/26 11:30:46;;;;;;;75.03;68.88;;;;;;;;;;5039627;28;20476;-62
2023/10/26 11:33:28;;;;;;;61.88;56.88;;;;;;;;;;5039237;28;20426;-62
2023/10/26 11:35:56;;;;;;;110.78;102.53;;;;;;;;;;5043330;28;25112;-63
2023/10/26 11:38:23;;;;;;;425.38;395.17;;;;;;;;;;5044537;28;20438;-62
2023/10/26 11:40:50;;;;;;;333.20;310.55;;;;;;;;;;5044133;28;20410;-62
2023/10/26 11:43:17;;;;;;;489.98;453.08;;;;;;;;;;5039031;28;20777;-62
2023/10/26 11:45:48;;;;;;;512.85;467.15;;;;;;;;;;5040721;28;20467;-62
2023/10/26 11:48:26;;;;;;;516.58;471.00;;;;;;;;;;5041363;28;20873;-62
2023/10/26 11:50:54;;;;;;;524.25;478.52;;;;;;;;;;5029748;28;20514;-62
2023/10/26 11:53:23;;;;;;;517.47;471.80;;;;;;;;;;5030504;28;20474;-62
2023/10/26 11:55:50;;;;;;;513.75;467.88;;;;;;;;;;5038161;28;20916;-62
2023/10/26 11:58:17;;;;;;;494.38;449.60;;;;;;;;;;5039911;28;20469;-62
2023/10/26 12:00:45;;;;;;;18.60;14.73;;;;;;;;;;5038799;28;20419;-62
2023/10/26 12:03:12;;;;;;;16.95;12.70;;;;;;;;;;5030498;28;20556;-62
2023/10/26 12:05:39;;;;;;;15.90;13.23;;;;;;;;;;5037359;28;20887;-62
2023/10/26 12:08:06;;;;;;;15.50;12.40;;;;;;;;;;5042740;28;20507;-62
2023/10/26 12:10:35;;;;;;;16.35;11.82;;;;;;;;;;5038365;28;21029;-63
2023/10/26 12:13:02;;;;;;;14.23;11.18;;;;;;;;;;5040209;28;20989;-62
2023/10/26 12:15:30;;;;;;;13.65;10.60;;;;;;;;;;5041363;28;20413;-63
2023/10/26 12:17:57;;;;;;;11.68;9.95;;;;;;;;;;5041058;28;20428;-63
2023/10/26 12:20:25;;;;;;;11.82;10.18;;;;;;;;;;5038970;28;21516;-62
2023/10/26 12:22:53;;;;;;;10.48;9.18;;;;;;;;;;5039365;28;20813;-62
2023/10/26 12:25:20;;;;;;;10.50;9.40;;;;;;;;;;5038694;28;20407;-62
2023/10/26 12:27:48;;;;;;;11.48;9.95;;;;;;;;;;5040017;28;20470;-61
2023/10/26 12:30:16;;;;;;;11.05;9.93;;;;;;;;;;5040884;28;20778;-61
2023/10/26 12:32:43;;;;;;;10.13;8.60;;;;;;;;;;5038135;28;20844;-59
2023/10/26 12:35:10;;;;;;;10.88;9.10;;;;;;;;;;5040619;28;20427;-63
2023/10/26 12:37:37;;;;;;;9.60;8.52;;;;;;;;;;5039489;28;20888;-63
2023/10/26 12:40:08;;;;;;;11.05;8.48;;;;;;;;;;5034204;28;20467;-63
2023/10/26 12:42:35;;;;;;;11.18;7.45;;;;;;;;;;5035231;28;20451;-63
2023/10/26 12:45:03;;;;;;;10.20;8.10;;;;;;;;;;5034967;28;20869;-63
2023/10/26 12:47:30;;;;;;;9.45;7.88;;;;;;;;;;5039140;28;20464;-63
2023/10/26 12:49:57;;;;;;;8.25;7.05;;;;;;;;;;5045351;28;20436;-63
2023/10/26 12:52:24;;;;;;;8.32;6.22;;;;;;;;;;5031737;28;20418;-63
2023/10/26 12:54:51;;;;;;;5.43;4.93;;;;;;;;;;5047376;28;20439;-63
2023/10/26 12:57:18;;;;;;;5.72;5.13;;;;;;;;;;5034125;28;20450;-64
2023/10/26 12:59:45;;;;;;;5.03;4.53;;;;;;;;;;5036682;28;20850;-63
2023/10/26 13:02:14;;;;;;;4.53;4.05;;;;;;;;;;5034130;28;20545;-65
2023/10/26 13:04:41;;;;;;;5.32;4.03;;;;;;;;;;5034328;28;20450;-63
2023/10/26 13:07:08;;;;;;;3.88;3.28;;;;;;;;;;5046615;28;20961;-61
2023/10/26 13:09:35;;;;;;;4.13;3.15;;;;;;;;;;5038233;28;20469;-63
2023/10/26 13:12:02;;;;;;;3.33;3.03;;;;;;;;;;5038932;28;20453;-63
2023/10/26 13:14:29;;;;;;;3.60;2.97;;;;;;;;;;5040616;28;20495;-63
2023/10/26 13:16:56;;;;;;;3.17;2.80;;;;;;;;;;5029343;28;20407;-62
2023/10/26 13:19:27;;;;;;;7.53;3.28;;;;;;;;;;5028845;28;20775;-67
2023/10/26 13:21:54;;;;;;;3.20;2.90;;;;;;;;;;5028835;28;20533;-66
2023/10/26 13:24:21;;;;;;;3.38;2.95;;;;;;;;;;5029552;28;20480;-65
2023/10/26 13:26:48;;;;;;;4.38;3.13;;;;;;;;;;5029258;28;20413;-66
2023/10/26 13:29:15;;;;;;;3.55;2.70;;;;;;;;;;5037086;28;20427;-66
2023/10/26 13:31:42;;;;;;;3.03;2.63;;;;;;;;;;5036921;28;20790;-66
2023/10/26 13:34:09;;;;;;;3.88;3.08;;;;;;;;;;5038628;28;20410;-67
2023/10/26 13:36:37;;;;;;;5.10;3.22;;;;;;;;;;5044361;28;20441;-67
2023/10/26 13:39:04;;;;;;;3.25;2.95;;;;;;;;;;5036733;28;20409;-67
2023/10/26 13:41:31;;;;;;;4.50;3.20;;;;;;;;;;5038623;28;20447;-71
2023/10/26 13:43:59;;;;;;;3.28;2.97;;;;;;;;;;5037678;28;20415;-66
2023/10/26 13:46:26;;;;;;;3.90;3.50;;;;;;;;;;5029006;28;21085;-67
2023/10/26 13:48:53;;;;;;;3.35;3.00;;;;;;;;;;5028916;28;20423;-67
2023/10/26 13:51:20;;;;;;;4.22;3.40;;;;;;;;;;5028779;28;20759;-67
2023/10/26 13:53:48;;;;;;;4.35;3.65;;;;;;;;;;5030554;28;20450;-67
2023/10/26 13:56:15;;;;;;;4.05;3.65;;;;;;;;;;5032710;28;20786;-66
2023/10/26 13:58:42;;;;;;;4.20;3.80;;;;;;;;;;5043351;28;20418;-67
2023/10/26 14:01:12;;;;;;;4.30;3.90;;;;;;;;;;5048837;28;20419;-67
2023/10/26 14:03:39;;;;;;;5.45;3.63;;;;;;;;;;5044816;28;21137;-68
2023/10/26 14:06:07;;;;;;;4.55;3.95;;;;;;;;;;5050230;28;20413;-66
2023/10/26 14:08:34;;;;;;;5.10;4.00;;;;;;;;;;5042874;28;20494;-66
2023/10/26 14:11:03;;;;;;;3.85;3.55;;;;;;;;;;5042490;28;20986;-66
2023/10/26 14:13:30;;;;;;;4.15;3.58;;;;;;;;;;5043910;28;20463;-66
2023/10/26 14:15:57;;;;;;;3.60;3.30;;;;;;;;;;5041325;28;20418;-66
2023/10/26 14:18:24;;;;;;;4.20;3.80;;;;;;;;;;5042407;28;20463;-66
2023/10/26 14:20:51;;;;;;;3.78;3.28;;;;;;;;;;5043796;28;20409;-66
2023/10/26 14:23:19;;;;;;;4.97;3.60;;;;;;;;;;5044315;28;20414;-65